Time;durP1;ratioP1;P1;durP2;ratioP2;P2;SDS_P1;SDS_P2;PMS_P1;PMS_P2;Temp;Humidity;BMP_temperature;BMP_pressure;BME280_temperature;BME280_humidity;BME280_pressure;Samples;Min_cycle;Max_cycle;Signal;HPM_P1;HPM_P2
2022/10/15 00:01:42;;;;;;;12.38;10.30;;;12.40;99.90;;;;;;5036649;28;20502;-62
2022/10/15 00:04:08;;;;;;;11.13;9.52;;;12.40;99.90;;;;;;5036725;28;20422;-62
2022/10/15 00:06:34;;;;;;;9.65;8.60;;;12.40;99.90;;;;;;5036715;28;20075;-63
2022/10/15 00:09:00;;;;;;;9.73;8.73;;;12.40;99.90;;;;;;5036577;28;20071;-62
2022/10/15 00:11:27;;;;;;;9.38;8.38;;;12.40;99.90;;;;;;5036444;28;20029;-63
2022/10/15 00:13:55;;;;;;;11.35;8.73;;;12.40;99.90;;;;;;5036644;28;20026;-64
2022/10/15 00:16:23;;;;;;;10.63;8.90;;;12.40;99.90;;;;;;5036405;28;20038;-63
2022/10/15 00:18:51;;;;;;;8.23;7.25;;;12.40;99.90;;;;;;5036492;28;20379;-62
2022/10/15 00:21:18;;;;;;;10.27;8.25;;;12.40;99.90;;;;;;5036283;28;20029;-63
2022/10/15 00:23:44;;;;;;;8.40;7.43;;;12.40;99.90;;;;;;5036326;28;20021;-63
2022/10/15 00:26:13;;;;;;;10.43;8.02;;;12.30;99.90;;;;;;5036040;28;20053;-63
2022/10/15 00:28:39;;;;;;;9.32;8.10;;;12.30;99.90;;;;;;5036113;28;20025;-64
2022/10/15 00:31:10;;;;;;;10.68;8.48;;;12.30;99.90;;;;;;5036160;28;20027;-63
2022/10/15 00:33:36;;;;;;;9.50;7.75;;;12.20;99.90;;;;;;5036345;28;20562;-63
2022/10/15 00:36:11;;;;;;;9.82;7.65;;;12.20;99.90;;;;;;5036447;28;20043;-62
2022/10/15 00:38:37;;;;;;;10.88;7.90;;;12.20;99.90;;;;;;5036063;28;20014;-62
2022/10/15 00:41:04;;;;;;;10.57;8.00;;;12.20;99.90;;;;;;5035906;28;20047;-63
2022/10/15 00:43:39;;;;;;;8.38;6.82;;;12.10;99.90;;;;;;5036028;28;20095;-63
2022/10/15 00:46:11;;;;;;;6.68;5.93;;;12.10;99.90;;;;;;5035834;28;20476;-63
2022/10/15 00:48:37;;;;;;;8.07;7.13;;;12.10;99.90;;;;;;5034948;28;20057;-64
2022/10/15 00:51:04;;;;;;;7.45;6.45;;;12.10;99.90;;;;;;5035844;28;20052;-63
2022/10/15 00:53:30;;;;;;;7.50;6.70;;;12.10;99.90;;;;;;5035818;28;20538;-63
2022/10/15 00:55:55;;;;;;;6.78;6.00;;;12.00;99.90;;;;;;5035840;28;20100;-63
2022/10/15 00:58:27;;;;;;;7.32;6.00;;;12.00;99.90;;;;;;5035769;28;20103;-62
2022/10/15 01:00:54;;;;;;;7.78;6.60;;;11.90;99.90;;;;;;5036018;28;20048;-65
2022/10/15 01:03:20;;;;;;;7.78;6.60;;;11.90;99.90;;;;;;5035661;28;20017;-62
2022/10/15 01:05:49;;;;;;;9.60;7.47;;;12.00;99.90;;;;;;5035504;28;20533;-63
2022/10/15 01:08:15;;;;;;;7.20;6.50;;;11.90;99.90;;;;;;5035682;28;20076;-63
2022/10/15 01:10:48;;;;;;;8.60;7.30;;;11.80;99.90;;;;;;5035548;28;20025;-64
2022/10/15 01:13:45;;;;;;;10.95;8.07;;;11.80;99.90;;;;;;5035384;28;20419;-63
2022/10/15 01:16:28;;;;;;;9.93;7.93;;;11.80;99.90;;;;;;5035436;28;20021;-63
2022/10/15 01:19:03;;;;;;;7.20;6.50;;;11.60;99.90;;;;;;5035361;28;20021;-64
2022/10/15 01:21:46;;;;;;;7.50;6.63;;;11.60;99.90;;;;;;5035245;28;20251;-62
2022/10/15 01:24:31;;;;;;;8.15;6.85;;;11.60;99.90;;;;;;5035337;28;20022;-62
2022/10/15 01:27:21;;;;;;;8.30;7.30;;;11.60;99.90;;;;;;5034975;28;20041;-64
2022/10/15 01:30:37;;;;;;;9.55;7.13;;;11.60;99.90;;;;;;5035262;28;20356;-63
2022/10/15 01:33:14;;;;;;;6.50;5.65;;;11.50;99.90;;;;;;4974289;28;20031;-64
2022/10/15 01:36:18;;;;;;;7.70;5.65;;;11.50;99.90;;;;;;5033730;28;20044;-63
2022/10/15 01:39:04;;;;;;;6.55;5.85;;;11.50;99.90;;;;;;5001698;28;20034;-64
2022/10/15 01:41:41;;;;;;;5.95;5.28;;;11.50;99.90;;;;;;5035207;28;20026;-63
2022/10/15 01:44:10;;;;;;;5.55;4.93;;;11.50;99.90;;;;;;5034876;28;20100;-63
2022/10/15 01:46:45;;;;;;;7.53;6.10;;;11.50;99.90;;;;;;5034833;28;20120;-63
2022/10/15 01:49:14;;;;;;;6.50;5.43;;;11.40;99.90;;;;;;5034731;28;20044;-62
2022/10/15 01:51:42;;;;;;;7.07;5.65;;;11.40;99.90;;;;;;5034813;28;20021;-64
2022/10/15 01:54:14;;;;;;;7.50;5.47;;;11.40;99.90;;;;;;5034489;28;20475;-63
2022/10/15 01:56:48;;;;;;;6.05;5.20;;;11.40;99.90;;;;;;5034668;28;20030;-63
2022/10/15 01:59:14;;;;;;;;;;;11.30;99.90;;;;;;5035218;28;20375;-63
2022/10/15 02:01:42;;;;;;;6.35;5.40;;;11.40;99.90;;;;;;5034518;28;19905;-64
2022/10/15 02:04:24;;;;;;;6.18;5.22;;;11.30;99.90;;;;;;5034508;28;20131;-64
2022/10/15 02:06:59;;;;;;;7.20;5.60;;;11.40;99.90;;;;;;5034457;28;20037;-63
2022/10/15 02:09:48;;;;;;;5.82;4.80;;;11.30;99.90;;;;;;5034214;28;20018;-64
2022/10/15 02:12:56;;;;;;;5.90;5.30;;;11.30;99.90;;;;;;5034308;28;20024;-63
2022/10/15 02:15:34;;;;;;;4.82;4.32;;;11.30;99.90;;;;;;5034260;28;20037;-63
2022/10/15 02:18:15;;;;;;;4.35;4.00;;;11.30;99.90;;;;;;5034262;28;20067;-63
2022/10/15 02:21:13;;;;;;;6.25;5.18;;;11.20;99.90;;;;;;5034044;28;20032;-63
2022/10/15 02:23:46;;;;;;;5.20;4.60;;;11.20;99.90;;;;;;5009812;28;20430;-63
2022/10/15 02:26:13;;;;;;;9.68;6.90;;;11.20;99.90;;;;;;5034007;28;20046;-63
2022/10/15 02:28:43;;;;;;;7.30;6.13;;;11.10;99.90;;;;;;5034057;28;20080;-64
2022/10/15 02:31:11;;;;;;;6.97;6.28;;;11.10;99.90;;;;;;5033926;28;20036;-62
2022/10/15 02:33:37;;;;;;;5.50;4.80;;;11.00;99.90;;;;;;5034234;28;20025;-64
2022/10/15 02:36:04;;;;;;;6.20;5.38;;;11.00;99.90;;;;;;5034028;28;20022;-63
2022/10/15 02:38:32;;;;;;;7.03;5.53;;;11.00;99.90;;;;;;5033608;28;20434;-64
2022/10/15 02:40:59;;;;;;;6.70;5.22;;;11.10;99.90;;;;;;5033927;28;20071;-62
2022/10/15 02:43:24;;;;;;;6.05;5.00;;;11.10;99.90;;;;;;5033865;28;20036;-62
2022/10/15 02:45:50;;;;;;;6.25;5.65;;;11.00;99.90;;;;;;5033790;28;20029;-63
2022/10/15 02:48:16;;;;;;;7.80;5.30;;;11.00;99.90;;;;;;5033751;28;20021;-63
2022/10/15 02:50:42;;;;;;;4.97;4.40;;;11.00;99.90;;;;;;5033762;28;20027;-63
2022/10/15 02:53:07;;;;;;;5.63;5.03;;;10.90;99.90;;;;;;5033473;28;20125;-63
2022/10/15 02:55:33;;;;;;;9.05;7.05;;;10.90;99.90;;;;;;5033536;28;20030;-63
2022/10/15 02:57:59;;;;;;;9.90;7.45;;;10.90;99.90;;;;;;5033706;28;20040;-63
2022/10/15 03:00:24;;;;;;;11.43;6.72;;;10.90;99.90;;;;;;5033631;28;20025;-64
2022/10/15 03:02:50;;;;;;;6.55;5.55;;;10.80;99.90;;;;;;5033444;28;20380;-64
2022/10/15 03:05:16;;;;;;;5.85;5.22;;;10.80;99.90;;;;;;5033891;28;20033;-64
2022/10/15 03:07:41;;;;;;;5.88;5.07;;;10.70;99.90;;;;;;5033267;28;20105;-64
2022/10/15 03:10:07;;;;;;;6.95;5.43;;;10.70;99.90;;;;;;5032847;28;20025;-63
2022/10/15 03:12:33;;;;;;;7.50;6.07;;;10.70;99.90;;;;;;5033513;28;20032;-63
2022/10/15 03:14:58;;;;;;;7.28;5.90;;;10.80;99.90;;;;;;5033424;28;20052;-63
2022/10/15 03:17:24;;;;;;;7.00;5.10;;;10.80;99.90;;;;;;5033283;28;20021;-62
2022/10/15 03:19:50;;;;;;;5.50;4.75;;;10.70;99.90;;;;;;5033315;28;20032;-62
2022/10/15 03:22:16;;;;;;;6.93;5.72;;;10.70;99.90;;;;;;5033039;28;20013;-64
2022/10/15 03:24:41;;;;;;;6.50;5.00;;;10.70;99.90;;;;;;5033004;28;20022;-63
2022/10/15 03:27:07;;;;;;;5.35;4.60;;;10.60;99.90;;;;;;5033401;28;20450;-64
2022/10/15 03:29:32;;;;;;;5.07;4.50;;;10.60;99.90;;;;;;5033201;28;20021;-63
2022/10/15 03:31:58;;;;;;;7.30;5.55;;;10.60;99.90;;;;;;5033227;28;20072;-63
2022/10/15 03:34:24;;;;;;;6.20;5.13;;;10.60;99.90;;;;;;5033115;28;20468;-63
2022/10/15 03:36:49;;;;;;;6.20;4.72;;;10.60;99.90;;;;;;5033020;28;20029;-64
2022/10/15 03:39:15;;;;;;;5.13;4.63;;;10.60;99.90;;;;;;5033348;28;20029;-63
2022/10/15 03:41:41;;;;;;;6.30;5.10;;;10.60;99.90;;;;;;5033011;28;20116;-63
2022/10/15 03:44:07;;;;;;;4.72;4.18;;;10.70;99.90;;;;;;5033191;28;20056;-63
2022/10/15 03:46:33;;;;;;;4.28;3.85;;;10.70;99.90;;;;;;5033260;28;20380;-63
2022/10/15 03:49:00;;;;;;;4.97;4.47;;;10.60;99.90;;;;;;5032969;28;20036;-63
2022/10/15 03:51:26;;;;;;;7.22;4.88;;;10.60;99.90;;;;;;5032877;28;20096;-63
2022/10/15 03:53:52;;;;;;;4.75;4.30;;;10.60;99.90;;;;;;5033004;28;20096;-64
2022/10/15 03:56:18;;;;;;;4.30;3.65;;;10.60;99.90;;;;;;5033156;28;20064;-63
2022/10/15 03:58:44;;;;;;;4.43;4.03;;;10.50;99.90;;;;;;5032901;28;20593;-63
2022/10/15 04:01:11;;;;;;;5.50;5.00;;;10.50;99.90;;;;;;5033101;28;20025;-63
2022/10/15 04:03:37;;;;;;;4.95;4.40;;;10.50;99.90;;;;;;5032962;28;20096;-63
2022/10/15 04:06:03;;;;;;;4.30;3.90;;;10.40;99.90;;;;;;5032863;28;20022;-63
2022/10/15 04:08:29;;;;;;;4.22;3.83;;;10.40;99.90;;;;;;5032854;28;20025;-63
2022/10/15 04:10:55;;;;;;;4.28;3.88;;;10.40;99.90;;;;;;5032829;28;20025;-63
2022/10/15 04:13:20;;;;;;;3.53;3.22;;;10.40;99.90;;;;;;5032670;28;20468;-62
2022/10/15 04:15:46;;;;;;;5.10;3.40;;;10.40;99.90;;;;;;5032534;28;20100;-63
2022/10/15 04:18:12;;;;;;;4.72;3.55;;;10.40;99.90;;;;;;5032771;28;20467;-63
2022/10/15 04:20:38;;;;;;;3.28;2.97;;;10.50;99.90;;;;;;5032655;28;20025;-63
2022/10/15 04:23:04;;;;;;;4.63;3.83;;;10.50;99.90;;;;;;5034179;28;20037;-63
2022/10/15 04:25:29;;;;;;;3.63;3.33;;;10.50;99.90;;;;;;5018387;28;20095;-63
2022/10/15 04:27:55;;;;;;;3.70;3.30;;;10.40;99.90;;;;;;5036338;28;20025;-62
2022/10/15 04:30:20;;;;;;;5.43;3.97;;;10.40;99.90;;;;;;5036381;28;20414;-64
2022/10/15 04:32:46;;;;;;;4.03;3.00;;;10.40;99.90;;;;;;5036345;28;20533;-63
2022/10/15 04:35:12;;;;;;;5.90;3.60;;;10.30;99.90;;;;;;5036253;28;20467;-63
2022/10/15 04:37:37;;;;;;;6.80;5.38;;;10.30;99.90;;;;;;5036051;28;20026;-63
2022/10/15 04:40:04;;;;;;;5.03;4.47;;;10.20;99.90;;;;;;5036051;28;20048;-64
2022/10/15 04:42:30;;;;;;;4.18;3.78;;;10.20;99.90;;;;;;5036304;28;20031;-63
2022/10/15 04:44:56;;;;;;;7.65;5.85;;;10.20;99.90;;;;;;5036109;28;20460;-64
2022/10/15 04:47:22;;;;;;;8.50;6.07;;;10.20;99.90;;;;;;5036096;28;20101;-62
2022/10/15 04:49:48;;;;;;;6.40;5.03;;;10.20;99.90;;;;;;5036023;28;20061;-63
2022/10/15 04:52:14;;;;;;;5.25;4.75;;;10.10;99.90;;;;;;5035781;28;20060;-64
2022/10/15 04:54:39;;;;;;;6.43;5.13;;;10.10;99.90;;;;;;5035968;28;20440;-64
2022/10/15 04:57:05;;;;;;;7.57;5.22;;;10.10;99.90;;;;;;5035851;28;20379;-64
2022/10/15 04:59:31;;;;;;;6.88;6.13;;;10.10;99.90;;;;;;5035680;28;20018;-63
2022/10/15 05:01:57;;;;;;;5.72;4.28;;;10.10;99.90;;;;;;5035742;28;20029;-64
2022/10/15 05:04:23;;;;;;;7.35;4.45;;;10.10;99.90;;;;;;5035574;28;20122;-62
2022/10/15 05:06:48;;;;;;;5.25;4.13;;;10.00;99.90;;;;;;5035439;28;20034;-62
2022/10/15 05:09:14;;;;;;;4.43;3.75;;;10.00;99.90;;;;;;5035574;28;20071;-64
2022/10/15 05:11:40;;;;;;;7.00;5.25;;;10.00;99.90;;;;;;5035573;28;20028;-64
2022/10/15 05:14:06;;;;;;;4.13;3.72;;;10.00;99.90;;;;;;5035522;28;20029;-63
2022/10/15 05:16:32;;;;;;;4.15;3.75;;;10.00;99.90;;;;;;5035314;28;20025;-62
2022/10/15 05:19:01;;;;;;;3.92;3.60;;;10.10;99.90;;;;;;5035473;28;20056;-62
2022/10/15 05:21:28;;;;;;;5.15;3.60;;;10.00;99.90;;;;;;5035340;28;20017;-63
2022/10/15 05:23:54;;;;;;;4.05;3.65;;;10.00;99.90;;;;;;5035175;28;20018;-62
2022/10/15 05:26:22;;;;;;;4.10;3.70;;;10.00;99.90;;;;;;5035020;28;20491;-63
2022/10/15 05:28:48;;;;;;;5.70;4.35;;;10.10;99.90;;;;;;5035106;28;20467;-63
2022/10/15 05:31:16;;;;;;;8.13;4.43;;;10.10;99.90;;;;;;5035020;28;20468;-63
2022/10/15 05:33:42;;;;;;;5.95;3.88;;;10.10;99.90;;;;;;5034456;28;20471;-62
2022/10/15 05:36:13;;;;;;;3.50;3.20;;;10.10;99.90;;;;;;5035110;28;20030;-63
2022/10/15 05:38:47;;;;;;;4.78;4.25;;;10.10;99.90;;;;;;5034899;28;20018;-63
2022/10/15 05:41:12;;;;;;;7.78;6.03;;;10.10;99.90;;;;;;5035015;28;20479;-63
2022/10/15 05:43:39;;;;;;;7.05;5.15;;;10.20;99.90;;;;;;5034932;28;20152;-62
2022/10/15 05:46:05;;;;;;;5.15;4.55;;;10.20;99.90;;;;;;5035122;28;20029;-63
2022/10/15 05:48:31;;;;;;;4.50;4.10;;;10.20;99.90;;;;;;5034684;28;20026;-63
2022/10/15 05:51:05;;;;;;;6.18;4.85;;;10.30;99.90;;;;;;5034815;28;20124;-64
2022/10/15 05:53:31;;;;;;;10.27;8.05;;;10.30;99.90;;;;;;5034834;28;20017;-63
2022/10/15 05:55:57;;;;;;;11.88;9.10;;;10.30;99.90;;;;;;5034758;28;20029;-62
2022/10/15 05:58:28;;;;;;;12.88;10.10;;;10.20;99.90;;;;;;5034736;28;20026;-63
2022/10/15 06:00:55;;;;;;;16.70;12.68;;;10.30;99.90;;;;;;5034416;28;20021;-63
2022/10/15 06:03:20;;;;;;;14.88;11.40;;;10.30;99.90;;;;;;5034782;28;20049;-63
2022/10/15 06:05:46;;;;;;;19.38;14.90;;;10.40;99.90;;;;;;5034641;28;20180;-63
2022/10/15 06:08:12;;;;;;;14.60;11.57;;;10.50;99.90;;;;;;5016688;28;20742;-62
2022/10/15 06:10:38;;;;;;;17.85;12.90;;;10.50;99.90;;;;;;5034500;28;20061;-64
2022/10/15 06:13:04;;;;;;;14.18;11.07;;;10.50;99.90;;;;;;5034353;28;20391;-63
2022/10/15 06:15:31;;;;;;;16.15;13.38;;;10.50;99.90;;;;;;5034025;28;20021;-63
2022/10/15 06:17:56;;;;;;;17.92;11.85;;;10.60;99.90;;;;;;5034350;28;20022;-63
2022/10/15 06:20:22;;;;;;;17.33;13.85;;;10.50;99.90;;;;;;5034245;28;20068;-63
2022/10/15 06:22:48;;;;;;;15.48;12.70;;;10.50;99.90;;;;;;5034236;28;20076;-63
2022/10/15 06:25:13;;;;;;;13.95;11.75;;;10.50;99.90;;;;;;5034031;28;20479;-63
2022/10/15 06:27:39;;;;;;;13.40;10.40;;;10.50;99.90;;;;;;5034323;28;20108;-63
2022/10/15 06:30:05;;;;;;;12.50;10.60;;;10.50;99.90;;;;;;5034050;28;20047;-63
2022/10/15 06:32:31;;;;;;;14.18;9.63;;;10.50;99.90;;;;;;5034081;28;20021;-62
2022/10/15 06:34:57;;;;;;;10.65;8.65;;;10.60;99.90;;;;;;5034034;28;20033;-63
2022/10/15 06:37:22;;;;;;;9.10;8.20;;;10.80;99.90;;;;;;5033808;28;20045;-62
2022/10/15 06:39:48;;;;;;;13.98;10.95;;;13.50;99.90;;;;;;5033972;28;20021;-62
2022/10/15 06:42:14;;;;;;;13.98;11.13;;;16.60;95.10;;;;;;5033987;28;20032;-62
2022/10/15 06:44:40;;;;;;;14.57;12.20;;;18.70;77.20;;;;;;5033224;28;20029;-64
2022/10/15 06:47:06;;;;;;;14.32;12.38;;;20.50;66.70;;;;;;5033168;28;20116;-62
2022/10/15 06:49:31;;;;;;;45.75;30.13;;;22.10;59.20;;;;;;5033746;28;20060;-62
2022/10/15 06:51:58;;;;;;;34.10;24.92;;;23.10;55.00;;;;;;5033661;28;20029;-62
2022/10/15 06:54:24;;;;;;;24.92;19.10;;;23.80;52.40;;;;;;5033532;28;20037;-63
2022/10/15 06:56:50;;;;;;;24.02;18.67;;;24.40;50.90;;;;;;5033870;28;20034;-63
2022/10/15 06:59:15;;;;;;;20.20;16.52;;;25.20;50.00;;;;;;5033685;28;20028;-63
2022/10/15 07:01:41;;;;;;;17.05;14.38;;;26.00;48.10;;;;;;5033462;28;20489;-63
2022/10/15 07:04:07;;;;;;;15.85;13.80;;;26.80;47.00;;;;;;5033560;28;20064;-62
2022/10/15 07:06:35;;;;;;;13.07;11.77;;;27.40;44.90;;;;;;5033614;28;20035;-63
2022/10/15 07:09:02;;;;;;;11.20;10.05;;;27.80;44.90;;;;;;5033216;28;20426;-63
2022/10/15 07:11:28;;;;;;;10.40;9.40;;;28.40;44.60;;;;;;5033419;28;20057;-62
2022/10/15 07:13:53;;;;;;;10.93;9.82;;;29.10;43.10;;;;;;5033218;28;20076;-62
2022/10/15 07:16:19;;;;;;;10.15;9.15;;;29.50;42.70;;;;;;5033462;28;20539;-62
2022/10/15 07:18:47;;;;;;;9.85;8.70;;;29.80;40.90;;;;;;5033309;28;20091;-63
2022/10/15 07:21:13;;;;;;;10.35;9.40;;;30.20;41.20;;;;;;5033470;28;20025;-62
2022/10/15 07:23:38;;;;;;;10.93;9.95;;;30.40;39.60;;;;;;5033208;28;20475;-63
2022/10/15 07:26:04;;;;;;;11.50;10.35;;;30.30;39.40;;;;;;5033065;28;20128;-64
2022/10/15 07:28:30;;;;;;;12.15;10.95;;;30.30;39.50;;;;;;5033289;28;20045;-64
2022/10/15 07:31:01;;;;;;;9.50;8.63;;;30.10;38.90;;;;;;5033227;28;20379;-64
2022/10/15 07:33:27;;;;;;;9.43;8.43;;;30.00;40.10;;;;;;5033176;28;20097;-63
2022/10/15 07:35:52;;;;;;;9.57;8.68;;;30.20;39.50;;;;;;5033226;28;20112;-63
2022/10/15 07:38:18;;;;;;;10.50;9.07;;;30.50;38.60;;;;;;5033071;28;20109;-63
2022/10/15 07:40:44;;;;;;;9.35;8.43;;;30.90;37.70;;;;;;5033010;28;20029;-63
2022/10/15 07:43:09;;;;;;;13.07;10.60;;;31.10;38.70;;;;;;5032931;28;20021;-62
2022/10/15 07:45:35;;;;;;;10.80;9.70;;;31.40;37.40;;;;;;5033060;28;20036;-63
2022/10/15 07:48:01;;;;;;;11.70;10.43;;;31.60;37.90;;;;;;5032933;28;20033;-64
2022/10/15 07:50:26;;;;;;;10.75;9.75;;;31.90;37.70;;;;;;5033232;28;20025;-63
2022/10/15 07:52:52;;;;;;;11.10;10.00;;;32.20;37.20;;;;;;5033013;28;20481;-62
2022/10/15 07:55:18;;;;;;;10.10;9.00;;;32.30;36.90;;;;;;5033032;28;20033;-64
2022/10/15 07:57:43;;;;;;;9.50;8.60;;;32.60;37.50;;;;;;5035468;28;20021;-62
2022/10/15 08:00:10;;;;;;;9.00;8.10;;;32.80;36.80;;;;;;5019076;28;20391;-63
2022/10/15 08:02:35;;;;;;;9.40;8.57;;;32.80;35.60;;;;;;5036780;28;20035;-62
2022/10/15 08:05:01;;;;;;;9.80;8.80;;;32.60;35.70;;;;;;5036808;28;20021;-63
2022/10/15 08:07:27;;;;;;;10.70;9.60;;;33.00;36.00;;;;;;5037008;28;20026;-63
2022/10/15 08:09:52;;;;;;;11.02;9.93;;;33.30;35.70;;;;;;5036687;28;20101;-62
2022/10/15 08:12:18;;;;;;;10.10;9.18;;;33.50;36.00;;;;;;5036319;28;20472;-62
2022/10/15 08:14:43;;;;;;;12.48;9.90;;;33.20;35.60;;;;;;5036572;28;20028;-63
2022/10/15 08:17:09;;;;;;;9.18;8.27;;;33.20;36.20;;;;;;5036549;28;20060;-63
2022/10/15 08:19:35;;;;;;;9.30;8.50;;;33.40;36.60;;;;;;5036402;28;20068;-63
2022/10/15 08:22:00;;;;;;;10.57;8.95;;;32.80;35.50;;;;;;5036839;28;20049;-63
2022/10/15 08:24:26;;;;;;;9.43;8.52;;;31.60;37.00;;;;;;5036393;28;20100;-63
2022/10/15 08:26:52;;;;;;;11.02;9.93;;;29.90;38.20;;;;;;5035827;28;20098;-62
2022/10/15 08:29:17;;;;;;;10.68;9.68;;;27.90;40.00;;;;;;5036293;28;20096;-62
2022/10/15 08:31:43;;;;;;;12.20;11.00;;;26.50;42.10;;;;;;5036258;28;20071;-62
2022/10/15 08:34:09;;;;;;;13.77;11.18;;;25.30;43.60;;;;;;5036217;28;20430;-62
2022/10/15 08:36:35;;;;;;;13.20;11.80;;;24.30;45.70;;;;;;5036218;28;20033;-63
2022/10/15 08:39:00;;;;;;;14.95;13.07;;;23.50;47.30;;;;;;5036233;28;20017;-62
2022/10/15 08:41:57;;;;;;;13.32;11.93;;;22.60;49.50;;;;;;5036153;28;20117;-62
2022/10/15 08:44:29;;;;;;;12.65;11.10;;;22.10;51.40;;;;;;5016057;28;20042;-63
2022/10/15 08:47:19;;;;;;;17.83;13.77;;;21.60;52.10;;;;;;5035817;28;20033;-64
2022/10/15 08:49:50;;;;;;;12.73;11.43;;;21.10;53.50;;;;;;5035971;28;20148;-63
2022/10/15 08:52:28;;;;;;;13.07;11.20;;;20.80;55.30;;;;;;5035899;28;20022;-64
2022/10/15 08:54:55;;;;;;;14.82;12.23;;;20.70;56.00;;;;;;5035668;28;20052;-63
2022/10/15 08:57:40;;;;;;;14.68;12.38;;;20.70;56.00;;;;;;5035732;28;20014;-63
2022/10/15 09:00:12;;;;;;;14.60;12.32;;;20.70;56.60;;;;;;5035867;28;20072;-63
2022/10/15 09:03:04;;;;;;;16.67;12.30;;;20.60;57.40;;;;;;5035648;28;20475;-62
2022/10/15 09:05:51;;;;;;;12.27;10.77;;;20.60;57.30;;;;;;5035691;28;20083;-62
2022/10/15 09:08:27;;;;;;;11.48;9.70;;;20.60;57.80;;;;;;5034824;28;20057;-64
2022/10/15 09:10:59;;;;;;;10.48;8.93;;;20.70;59.90;;;;;;5035450;28;20539;-63
2022/10/15 09:13:27;;;;;;;9.38;8.45;;;20.60;61.30;;;;;;5035501;28;20049;-63
2022/10/15 09:16:15;;;;;;;9.55;8.55;;;20.50;64.30;;;;;;5035513;28;20037;-64
2022/10/15 09:18:45;;;;;;;9.32;7.85;;;20.60;64.10;;;;;;5035430;28;20097;-62
2022/10/15 09:21:12;;;;;;;8.60;7.70;;;20.60;70.10;;;;;;5035331;28;20461;-64
2022/10/15 09:23:40;;;;;;;6.90;6.20;;;20.60;70.70;;;;;;5035474;28;20060;-63
2022/10/15 09:26:11;;;;;;;6.35;5.78;;;21.00;68.40;;;;;;5035028;28;20133;-62
2022/10/15 09:28:57;;;;;;;8.93;6.63;;;21.60;62.80;;;;;;5035220;28;20084;-62
2022/10/15 09:31:28;;;;;;;7.03;6.32;;;21.90;57.60;;;;;;5035204;28;20060;-63
2022/10/15 09:34:21;;;;;;;5.90;4.45;;;22.40;60.40;;;;;;5035186;28;20021;-62
2022/10/15 09:36:59;;;;;;;3.73;3.43;;;23.00;53.10;;;;;;5035151;28;20027;-64
2022/10/15 09:39:33;;;;;;;3.65;3.35;;;23.40;51.20;;;;;;5034830;28;20025;-62
2022/10/15 09:42:35;;;;;;;3.72;3.33;;;23.90;49.90;;;;;;5035047;28;20056;-63
2022/10/15 09:45:09;;;;;;;4.53;3.58;;;24.10;48.80;;;;;;5034839;28;20034;-63
2022/10/15 09:47:37;;;;;;;2.38;1.95;;;24.30;46.50;;;;;;5034809;28;20031;-62
2022/10/15 09:50:05;;;;;;;2.13;1.92;;;24.40;47.20;;;;;;5034655;28;20032;-64
2022/10/15 09:52:50;;;;;;;1.70;1.50;;;24.60;45.60;;;;;;5034751;28;20021;-64
2022/10/15 09:55:34;;;;;;;2.05;1.95;;;25.00;44.60;;;;;;5034569;28;20047;-62
2022/10/15 09:58:23;;;;;;;2.30;1.70;;;25.20;49.20;;;;;;5034863;28;20103;-63
2022/10/15 10:01:04;;;;;;;2.85;1.50;;;25.60;46.90;;;;;;5034778;28;20033;-63
2022/10/15 10:03:32;;;;;;;2.35;1.90;;;25.90;43.90;;;;;;5034655;28;20029;-64
2022/10/15 10:06:03;;;;;;;2.15;1.90;;;25.90;43.20;;;;;;5034365;28;20508;-63
2022/10/15 10:08:36;;;;;;;2.97;2.03;;;25.90;41.40;;;;;;5034337;28;20018;-63
2022/10/15 10:11:06;;;;;;;2.22;2.03;;;25.90;42.30;;;;;;5034638;28;20101;-62
2022/10/15 10:13:44;;;;;;;1.63;1.52;;;26.10;45.80;;;;;;5034702;28;20538;-64
2022/10/15 10:16:12;;;;;;;2.03;1.83;;;26.40;45.50;;;;;;5034280;28;20514;-62
2022/10/15 10:18:38;;;;;;;2.72;1.73;;;26.70;41.50;;;;;;5034466;28;20411;-62
2022/10/15 10:21:19;;;;;;;1.70;1.60;;;26.70;40.90;;;;;;5034107;28;20079;-63
2022/10/15 10:23:44;;;;;;;1.70;1.60;;;26.70;43.10;;;;;;5033920;28;20369;-64
2022/10/15 10:26:11;;;;;;;1.75;1.65;;;26.70;41.20;;;;;;5033981;28;20052;-64
2022/10/15 10:28:56;;;;;;;1.33;1.23;;;26.70;39.40;;;;;;5034121;28;20053;-64
2022/10/15 10:31:31;;;;;;;4.00;1.98;;;26.80;43.70;;;;;;5034189;28;20428;-63
2022/10/15 10:34:01;;;;;;;1.40;1.30;;;26.90;42.30;;;;;;5034308;28;20048;-62
2022/10/15 10:36:28;;;;;;;1.92;1.73;;;27.20;40.10;;;;;;5033645;28;20025;-62
2022/10/15 10:39:00;;;;;;;1.77;1.67;;;27.10;40.10;;;;;;5034241;28;20029;-63
2022/10/15 10:41:46;;;;;;;;;;;27.40;41.50;;;;;;5034254;28;20018;-62
2022/10/15 10:44:25;;;;;;;2.03;1.80;;;27.50;38.80;;;;;;5033884;28;19948;-63
2022/10/15 10:47:24;;;;;;;1.90;1.67;;;27.60;40.60;;;;;;5033723;28;20033;-64
2022/10/15 10:49:52;;;;;;;1.70;1.60;;;27.70;44.80;;;;;;5000928;28;20029;-64
2022/10/15 10:52:20;;;;;;;1.67;1.45;;;27.80;41.60;;;;;;5033407;28;20021;-62
2022/10/15 10:54:47;;;;;;;1.55;1.45;;;27.90;42.10;;;;;;5033728;28;20136;-63
2022/10/15 10:57:17;;;;;;;1.40;1.30;;;27.90;39.50;;;;;;5033726;28;20108;-64
2022/10/15 10:59:55;;;;;;;1.60;1.50;;;27.90;39.70;;;;;;5033602;28;20032;-63
2022/10/15 11:02:20;;;;;;;1.70;1.60;;;28.10;38.90;;;;;;5033814;28;20422;-63
2022/10/15 11:04:46;;;;;;;2.30;1.52;;;28.20;40.20;;;;;;5033485;28;20021;-63
2022/10/15 11:07:18;;;;;;;1.80;1.65;;;28.30;40.40;;;;;;5033782;28;20036;-63
2022/10/15 11:09:59;;;;;;;1.50;1.40;;;28.30;39.20;;;;;;5033533;28;20100;-62
2022/10/15 11:12:30;;;;;;;1.42;1.33;;;28.30;41.50;;;;;;5033560;28;20059;-62
2022/10/15 11:15:34;;;;;;;2.00;1.50;;;28.30;40.50;;;;;;5033488;28;20127;-64
2022/10/15 11:18:28;;;;;;;2.90;1.90;;;28.30;38.90;;;;;;5020089;28;20069;-63
2022/10/15 11:21:21;;;;;;;1.70;1.40;;;28.30;37.70;;;;;;5033204;28;20067;-62
2022/10/15 11:24:16;;;;;;;1.70;1.40;;;28.50;38.00;;;;;;5033237;28;20021;-64
2022/10/15 11:26:53;;;;;;;1.50;1.40;;;28.60;40.30;;;;;;5033068;28;20038;-64
2022/10/15 11:29:22;;;;;;;1.48;1.35;;;28.90;43.60;;;;;;5033240;28;20068;-63
2022/10/15 11:32:01;;;;;;;1.30;1.20;;;29.10;38.30;;;;;;5035774;28;20033;-63
2022/10/15 11:34:47;;;;;;;2.45;1.20;;;29.40;38.30;;;;;;5039820;28;20025;-62
2022/10/15 11:37:33;;;;;;;1.15;1.08;;;29.30;36.70;;;;;;5039794;28;20112;-63
2022/10/15 11:40:24;;;;;;;1.27;1.17;;;29.20;37.70;;;;;;5039250;28;20436;-63
2022/10/15 11:42:59;;;;;;;1.30;1.20;;;29.00;37.70;;;;;;5039661;28;20025;-64
2022/10/15 11:45:41;;;;;;;1.73;1.10;;;29.20;40.10;;;;;;5039748;28;20026;-64
2022/10/15 11:48:19;;;;;;;1.60;1.20;;;29.20;37.80;;;;;;5039617;28;20028;-63
2022/10/15 11:51:00;;;;;;;3.42;1.30;;;29.10;36.40;;;;;;5039546;28;20025;-62
2022/10/15 11:53:56;;;;;;;1.52;1.20;;;29.10;39.30;;;;;;5039621;28;20025;-62
2022/10/15 11:56:33;;;;;;;1.20;1.10;;;29.20;36.50;;;;;;5039489;28;20056;-62
2022/10/15 11:59:09;;;;;;;1.10;1.00;;;28.90;36.90;;;;;;5039646;28;20421;-63
2022/10/15 12:01:42;;;;;;;1.33;1.23;;;29.20;38.70;;;;;;5039421;28;20494;-62
2022/10/15 12:04:26;;;;;;;;;;;29.50;36.80;;;;;;5039707;28;20029;-62
2022/10/15 12:06:55;;;;;;;1.50;1.40;;;29.70;37.20;;;;;;5039336;28;19920;-62
2022/10/15 12:09:30;;;;;;;1.83;1.50;;;29.70;37.10;;;;;;5039478;28;20386;-61
2022/10/15 12:12:11;;;;;;;1.08;1.08;;;29.60;37.90;;;;;;5039440;28;20030;-62
2022/10/15 12:15:12;;;;;;;1.30;1.20;;;29.80;37.80;;;;;;5039553;28;20499;-63
2022/10/15 12:17:50;;;;;;;1.40;1.30;;;29.80;39.40;;;;;;4978394;28;20512;-64
2022/10/15 12:20:19;;;;;;;1.10;1.00;;;29.80;36.60;;;;;;5032010;28;20539;-64
2022/10/15 12:23:01;;;;;;;1.73;1.30;;;29.70;38.10;;;;;;5039410;28;20137;-63
2022/10/15 12:25:33;;;;;;;1.27;0.98;;;29.80;38.30;;;;;;5039133;28;20542;-62
2022/10/15 12:28:31;;;;;;;1.10;1.00;;;30.00;39.30;;;;;;5039502;28;20029;-62
2022/10/15 12:31:01;;;;;;;0.90;0.90;;;30.20;37.60;;;;;;5039364;28;20025;-63
2022/10/15 12:33:38;;;;;;;1.27;1.17;;;30.40;39.10;;;;;;5039081;28;20079;-64
2022/10/15 12:36:19;;;;;;;1.40;1.30;;;30.50;38.60;;;;;;5039261;28;20025;-62
2022/10/15 12:39:02;;;;;;;1.33;1.23;;;30.40;35.50;;;;;;5039249;28;20022;-63
2022/10/15 12:41:40;;;;;;;1.42;1.33;;;30.20;35.90;;;;;;5039219;28;20022;-65
2022/10/15 12:44:16;;;;;;;1.27;1.17;;;29.90;36.10;;;;;;5035736;28;20025;-63
2022/10/15 12:46:42;;;;;;;1.40;1.30;;;30.00;38.90;;;;;;5035970;28;20469;-62
2022/10/15 12:49:26;;;;;;;1.83;1.70;;;30.40;39.80;;;;;;5035769;28;20022;-62
2022/10/15 12:51:53;;;;;;;2.17;2.00;;;30.50;36.60;;;;;;5036021;28;20022;-63
2022/10/15 12:54:44;;;;;;;2.03;1.92;;;30.20;37.20;;;;;;5035822;28;20484;-62
2022/10/15 12:57:36;;;;;;;2.28;2.08;;;30.30;36.50;;;;;;5036143;28;20030;-62
2022/10/15 13:00:24;;;;;;;2.05;1.40;;;30.30;36.60;;;;;;5035911;28;20025;-62
2022/10/15 13:02:52;;;;;;;1.98;1.88;;;30.20;36.00;;;;;;5035282;28;20054;-63
2022/10/15 13:05:29;;;;;;;2.20;1.80;;;30.20;36.40;;;;;;5035616;28;20491;-60